STT41 PJNL-PHNY

Flight info

Callsign STT41
Flight time N/A
Altitude 7000
Route PHNL PALAY3 PHNY
Aircraft C408/L-VGDW/C

Departure

Time N/A
Airport PJNL

Arrival

Time 2026-04-22 20:27
Airport Lanai Airport (PHNY)
Time Latitude Longitude Altitude Speed Heading
2026-04-22 19:47 21.32208 -157.91224 5 ft 0 kts 154°
2026-04-22 19:58 21.32169 -157.91236 5 ft 9 kts 217°
2026-04-22 19:58 21.32166 -157.91291 5 ft 12 kts 314°
2026-04-22 19:59 21.32211 -157.91342 5 ft 2 kts 255°
2026-04-22 20:00 21.31645 -157.92065 6 ft 27 kts 232°
2026-04-22 20:00 21.31529 -157.92229 5 ft 23 kts 233°
2026-04-22 20:01 21.31441 -157.92357 4 ft 25 kts 233°
2026-04-22 20:01 21.31330 -157.92514 6 ft 26 kts 232°
2026-04-22 20:01 21.31282 -157.92593 7 ft 4 kts 268°
2026-04-22 20:01 21.31350 -157.92668 9 ft 21 kts 327°
2026-04-22 20:02 21.31432 -157.92686 10 ft 11 kts 41°
2026-04-22 20:02 21.31469 -157.92609 8 ft 11 kts 57°
2026-04-22 20:02 21.31579 -157.92451 6 ft 58 kts 53°
2026-04-22 20:02 21.31953 -157.91918 76 ft 111 kts 54°
2026-04-22 20:03 21.32477 -157.91202 424 ft 131 kts 55°
2026-04-22 20:03 21.33002 -157.90356 792 ft 142 kts 76°
2026-04-22 20:03 21.32711 -157.89370 1160 ft 147 kts 133°
2026-04-22 20:04 21.30235 -157.87229 2297 ft 158 kts 141°
2026-04-22 20:04 21.28490 -157.85769 3046 ft 160 kts 138°
2026-04-22 20:05 21.27596 -157.85058 3414 ft 161 kts 139°
2026-04-22 20:05 21.26698 -157.84339 3769 ft 161 kts 141°
2026-04-22 20:05 21.25890 -157.83550 4119 ft 158 kts 121°
2026-04-22 20:05 21.25343 -157.82528 4489 ft 159 kts 119°
2026-04-22 20:06 21.24749 -157.81518 4860 ft 161 kts 121°
2026-04-22 20:06 21.24150 -157.80493 5221 ft 163 kts 119°
2026-04-22 20:06 21.23549 -157.79454 5580 ft 165 kts 119°
2026-04-22 20:06 21.22944 -157.78403 5950 ft 166 kts 120°
2026-04-22 20:07 21.22333 -157.77347 6318 ft 168 kts 119°
2026-04-22 20:07 21.21716 -157.76280 6683 ft 168 kts 120°
2026-04-22 20:07 21.21099 -157.75209 6984 ft 173 kts 120°
2026-04-22 20:07 21.20442 -157.74073 7001 ft 189 kts 121°
2026-04-22 20:08 21.19731 -157.72847 7008 ft 198 kts 120°
2026-04-22 20:08 21.18996 -157.71575 7004 ft 203 kts 120°
2026-04-22 20:08 21.18258 -157.70298 7002 ft 200 kts 121°
2026-04-22 20:08 21.17530 -157.69038 6995 ft 199 kts 120°
2026-04-22 20:09 21.16796 -157.67771 6999 ft 201 kts 120°
2026-04-22 20:09 21.16057 -157.66499 7002 ft 201 kts 120°
2026-04-22 20:09 21.15320 -157.65225 7001 ft 201 kts 120°
2026-04-22 20:09 21.14585 -157.63953 6992 ft 201 kts 120°
2026-04-22 20:10 21.13850 -157.62684 6997 ft 200 kts 120°
2026-04-22 20:10 21.13118 -157.61421 6986 ft 200 kts 120°
2026-04-22 20:10 21.12387 -157.60159 6997 ft 200 kts 120°
2026-04-22 20:10 21.11656 -157.58901 6987 ft 203 kts 120°
2026-04-22 20:11 21.10900 -157.57596 6999 ft 208 kts 120°
2026-04-22 20:11 21.10164 -157.56249 6998 ft 210 kts 117°
2026-04-22 20:11 21.09452 -157.54879 6995 ft 211 kts 118°
2026-04-22 20:11 21.08720 -157.53510 6992 ft 212 kts 119°
2026-04-22 20:12 21.07991 -157.52137 6991 ft 213 kts 118°
2026-04-22 20:12 21.07267 -157.50757 6989 ft 212 kts 118°
2026-04-22 20:12 21.06542 -157.49381 6991 ft 212 kts 118°
2026-04-22 20:12 21.05818 -157.48008 6996 ft 212 kts 118°
2026-04-22 20:13 21.05104 -157.46655 6985 ft 212 kts 118°
2026-04-22 20:13 21.04379 -157.45283 6994 ft 212 kts 118°
2026-04-22 20:13 21.03654 -157.43909 6994 ft 213 kts 118°
2026-04-22 20:13 21.02925 -157.42527 6995 ft 213 kts 118°
2026-04-22 20:14 21.02191 -157.41141 6942 ft 215 kts 118°
2026-04-22 20:14 21.01463 -157.39756 6940 ft 213 kts 118°
2026-04-22 20:14 21.00735 -157.38382 6939 ft 212 kts 118°
2026-04-22 20:14 21.00008 -157.37008 6938 ft 212 kts 118°
2026-04-22 20:15 20.99037 -157.35849 6921 ft 213 kts 149°
2026-04-22 20:15 20.97622 -157.35445 6929 ft 212 kts 175°
2026-04-22 20:15 20.96156 -157.35231 6931 ft 213 kts 169°
2026-04-22 20:15 20.94734 -157.34855 6935 ft 214 kts 164°
2026-04-22 20:16 20.93303 -157.34415 6864 ft 217 kts 164°
2026-04-22 20:16 20.91811 -157.33977 6523 ft 226 kts 165°
2026-04-22 20:16 20.90283 -157.33548 6160 ft 228 kts 165°
2026-04-22 20:16 20.88746 -157.33114 5796 ft 228 kts 164°
2026-04-22 20:17 20.87212 -157.32675 5438 ft 228 kts 164°
2026-04-22 20:17 20.85687 -157.32237 5080 ft 226 kts 164°
2026-04-22 20:17 20.84173 -157.31806 4717 ft 225 kts 164°
2026-04-22 20:17 20.82690 -157.31383 4353 ft 223 kts 164°
2026-04-22 20:18 20.81198 -157.30959 4028 ft 220 kts 164°
2026-04-22 20:18 20.79736 -157.30542 3783 ft 216 kts 163°
2026-04-22 20:18 20.78298 -157.30131 3644 ft 210 kts 163°
2026-04-22 20:18 20.76909 -157.29735 3639 ft 205 kts 164°
2026-04-22 20:19 20.75537 -157.29344 3636 ft 203 kts 164°
2026-04-22 20:19 20.74174 -157.28955 3636 ft 202 kts 164°
2026-04-22 20:19 20.72818 -157.28570 3635 ft 202 kts 164°
2026-04-22 20:19 20.71464 -157.28184 3639 ft 202 kts 163°
2026-04-22 20:20 20.70109 -157.27798 3637 ft 201 kts 163°
2026-04-22 20:20 20.68757 -157.27413 3639 ft 201 kts 164°
2026-04-22 20:20 20.67481 -157.26851 3638 ft 199 kts 144°
2026-04-22 20:20 20.66473 -157.25853 3636 ft 198 kts 125°
2026-04-22 20:21 20.65871 -157.24545 3641 ft 197 kts 107°
2026-04-22 20:21 20.65705 -157.23123 3645 ft 196 kts 92°
2026-04-22 20:21 20.65599 -157.21668 3649 ft 197 kts 95°
2026-04-22 20:21 20.65464 -157.20207 3653 ft 198 kts 95°
2026-04-22 20:22 20.65345 -157.18742 3658 ft 199 kts 94°
2026-04-22 20:22 20.65233 -157.17272 3661 ft 199 kts 94°
2026-04-22 20:22 20.65119 -157.15802 3665 ft 198 kts 95°
2026-04-22 20:22 20.65003 -157.14333 3668 ft 198 kts 94°
2026-04-22 20:23 20.64888 -157.12864 3669 ft 199 kts 94°
2026-04-22 20:23 20.64772 -157.11393 3671 ft 199 kts 94°
2026-04-22 20:23 20.64882 -157.09937 3665 ft 198 kts 73°
2026-04-22 20:23 20.65475 -157.08638 3670 ft 198 kts 53°
2026-04-22 20:24 20.66444 -157.07600 3676 ft 198 kts 43°
2026-04-22 20:24 20.67446 -157.06584 3678 ft 199 kts 45°
2026-04-22 20:24 20.68466 -157.05514 3325 ft 211 kts 45°
2026-04-22 20:24 20.69529 -157.04417 2967 ft 214 kts 44°
2026-04-22 20:25 20.70603 -157.03320 2628 ft 214 kts 44°
2026-04-22 20:25 20.71646 -157.02252 2604 ft 201 kts 44°
2026-04-22 20:25 20.72623 -157.01248 2594 ft 191 kts 44°
2026-04-22 20:25 20.73573 -157.00272 2559 ft 190 kts 44°
2026-04-22 20:26 20.74481 -156.99339 2337 ft 163 kts 45°
2026-04-22 20:26 20.75237 -156.98567 2124 ft 144 kts 45°
2026-04-22 20:26 20.75900 -156.97890 1961 ft 126 kts 44°
2026-04-22 20:26 20.76523 -156.97250 1788 ft 120 kts 45°
2026-04-22 20:27 20.77114 -156.96649 1673 ft 118 kts 45°
2026-04-22 20:27 20.77689 -156.96046 1451 ft 113 kts 46°
2026-04-22 20:27 20.78203 -156.95515 1301 ft 88 kts 44°
2026-04-22 20:27 20.78536 -156.95176 1304 ft 41 kts 43°
2026-04-22 20:28 20.78756 -156.94949 1306 ft 45 kts 44°
2026-04-22 20:28 20.78853 -156.94862 1304 ft 6 kts 350°
2026-04-22 20:28 20.78904 -156.94906 1304 ft 12 kts 312°
2026-04-22 20:28 20.78969 -156.94927 1304 ft 13 kts 14°
2026-04-22 20:29 20.79025 -156.94918 1305 ft 9 kts 309°
2026-04-22 20:29 20.79024 -156.94948 1305 ft 6 kts 229°
2026-04-22 20:29 20.79023 -156.94950 1305 ft 0 kts 229°